sensor_id;sensor_type;location;lat;lon;timestamp;P1;durP1;ratioP1;P2;durP2;ratioP2
69629;SDS011;56857;52.212;5.496;2023-03-23T00:01:41;9.20;;;4.73;;
69629;SDS011;56857;52.212;5.496;2023-03-23T00:04:06;11.57;;;5.00;;
69629;SDS011;56857;52.212;5.496;2023-03-23T00:06:32;8.52;;;4.82;;
69629;SDS011;56857;52.212;5.496;2023-03-23T00:08:57;12.38;;;4.70;;
69629;SDS011;56857;52.212;5.496;2023-03-23T00:11:23;10.03;;;4.60;;
69629;SDS011;56857;52.212;5.496;2023-03-23T00:13:50;14.60;;;5.15;;
69629;SDS011;56857;52.212;5.496;2023-03-23T00:16:17;10.85;;;4.97;;
69629;SDS011;56857;52.212;5.496;2023-03-23T00:18:47;10.32;;;4.35;;
69629;SDS011;56857;52.212;5.496;2023-03-23T00:21:14;13.30;;;4.97;;
69629;SDS011;56857;52.212;5.496;2023-03-23T00:23:40;9.57;;;4.45;;
69629;SDS011;56857;52.212;5.496;2023-03-23T00:26:06;13.43;;;4.88;;
69629;SDS011;56857;52.212;5.496;2023-03-23T00:28:31;10.68;;;4.93;;
69629;SDS011;56857;52.212;5.496;2023-03-23T00:30:58;10.32;;;5.70;;
69629;SDS011;56857;52.212;5.496;2023-03-23T00:33:26;10.77;;;4.40;;
69629;SDS011;56857;52.212;5.496;2023-03-23T00:35:53;9.45;;;4.30;;
69629;SDS011;56857;52.212;5.496;2023-03-23T00:38:19;11.07;;;4.55;;
69629;SDS011;56857;52.212;5.496;2023-03-23T00:40:45;8.93;;;4.50;;
69629;SDS011;56857;52.212;5.496;2023-03-23T00:43:11;8.88;;;4.47;;
69629;SDS011;56857;52.212;5.496;2023-03-23T00:45:36;11.02;;;4.28;;
69629;SDS011;56857;52.212;5.496;2023-03-23T00:48:01;9.57;;;4.18;;
69629;SDS011;56857;52.212;5.496;2023-03-23T00:50:27;9.50;;;4.50;;
69629;SDS011;56857;52.212;5.496;2023-03-23T00:52:52;8.02;;;3.60;;
69629;SDS011;56857;52.212;5.496;2023-03-23T00:55:19;9.13;;;4.33;;
69629;SDS011;56857;52.212;5.496;2023-03-23T00:57:44;11.43;;;3.80;;
69629;SDS011;56857;52.212;5.496;2023-03-23T01:00:10;9.53;;;3.90;;
69629;SDS011;56857;52.212;5.496;2023-03-23T01:02:35;9.38;;;3.75;;
69629;SDS011;56857;52.212;5.496;2023-03-23T01:05:01;8.95;;;4.43;;
69629;SDS011;56857;52.212;5.496;2023-03-23T01:07:26;8.77;;;3.72;;
69629;SDS011;56857;52.212;5.496;2023-03-23T01:09:51;9.13;;;4.03;;
69629;SDS011;56857;52.212;5.496;2023-03-23T01:12:17;11.20;;;4.28;;
69629;SDS011;56857;52.212;5.496;2023-03-23T01:14:42;9.17;;;3.63;;
69629;SDS011;56857;52.212;5.496;2023-03-23T01:17:07;10.13;;;4.13;;
69629;SDS011;56857;52.212;5.496;2023-03-23T01:19:33;9.52;;;4.13;;
69629;SDS011;56857;52.212;5.496;2023-03-23T01:21:58;9.80;;;3.85;;
69629;SDS011;56857;52.212;5.496;2023-03-23T01:24:23;7.43;;;3.60;;
69629;SDS011;56857;52.212;5.496;2023-03-23T01:26:49;9.20;;;3.50;;
69629;SDS011;56857;52.212;5.496;2023-03-23T01:29:14;10.88;;;4.10;;
69629;SDS011;56857;52.212;5.496;2023-03-23T01:31:39;6.57;;;3.53;;
69629;SDS011;56857;52.212;5.496;2023-03-23T01:34:05;8.52;;;3.60;;
69629;SDS011;56857;52.212;5.496;2023-03-23T01:36:31;7.47;;;3.50;;
69629;SDS011;56857;52.212;5.496;2023-03-23T01:38:56;7.70;;;3.30;;
69629;SDS011;56857;52.212;5.496;2023-03-23T01:41:21;11.07;;;4.00;;
69629;SDS011;56857;52.212;5.496;2023-03-23T01:43:53;7.32;;;3.70;;
69629;SDS011;56857;52.212;5.496;2023-03-23T01:46:24;7.45;;;3.30;;
69629;SDS011;56857;52.212;5.496;2023-03-23T01:48:51;7.32;;;3.38;;
69629;SDS011;56857;52.212;5.496;2023-03-23T01:51:17;10.10;;;3.85;;
69629;SDS011;56857;52.212;5.496;2023-03-23T01:53:46;8.05;;;3.40;;
69629;SDS011;56857;52.212;5.496;2023-03-23T01:56:16;6.90;;;3.22;;
69629;SDS011;56857;52.212;5.496;2023-03-23T01:58:46;7.07;;;3.22;;
69629;SDS011;56857;52.212;5.496;2023-03-23T02:01:12;8.63;;;3.58;;
69629;SDS011;56857;52.212;5.496;2023-03-23T02:03:41;7.25;;;3.22;;
69629;SDS011;56857;52.212;5.496;2023-03-23T02:06:09;9.70;;;3.97;;
69629;SDS011;56857;52.212;5.496;2023-03-23T02:08:34;7.95;;;3.38;;
69629;SDS011;56857;52.212;5.496;2023-03-23T02:11:00;7.85;;;3.65;;
69629;SDS011;56857;52.212;5.496;2023-03-23T02:13:27;9.38;;;3.60;;
69629;SDS011;56857;52.212;5.496;2023-03-23T02:24:07;11.45;;;3.60;;
69629;SDS011;56857;52.212;5.496;2023-03-23T02:27:05;9.35;;;3.30;;
69629;SDS011;56857;52.212;5.496;2023-03-23T02:32:20;7.15;;;3.20;;
69629;SDS011;56857;52.212;5.496;2023-03-23T02:35:00;8.63;;;3.35;;
69629;SDS011;56857;52.212;5.496;2023-03-23T02:37:35;7.85;;;3.22;;
69629;SDS011;56857;52.212;5.496;2023-03-23T02:40:13;7.90;;;3.83;;
69629;SDS011;56857;52.212;5.496;2023-03-23T02:42:41;8.90;;;3.90;;
69629;SDS011;56857;52.212;5.496;2023-03-23T02:45:10;9.27;;;3.38;;
69629;SDS011;56857;52.212;5.496;2023-03-23T02:47:38;7.35;;;3.60;;
69629;SDS011;56857;52.212;5.496;2023-03-23T02:50:05;8.70;;;3.55;;
69629;SDS011;56857;52.212;5.496;2023-03-23T02:52:35;12.32;;;4.15;;
69629;SDS011;56857;52.212;5.496;2023-03-23T02:55:02;8.80;;;3.60;;
69629;SDS011;56857;52.212;5.496;2023-03-23T02:57:29;7.43;;;3.78;;
69629;SDS011;56857;52.212;5.496;2023-03-23T02:59:56;10.07;;;3.88;;
69629;SDS011;56857;52.212;5.496;2023-03-23T03:05:01;8.70;;;3.97;;
69629;SDS011;56857;52.212;5.496;2023-03-23T03:07:36;8.07;;;3.95;;
69629;SDS011;56857;52.212;5.496;2023-03-23T03:10:24;7.45;;;3.65;;
69629;SDS011;56857;52.212;5.496;2023-03-23T03:12:59;8.68;;;3.47;;
69629;SDS011;56857;52.212;5.496;2023-03-23T03:15:32;8.13;;;3.63;;
69629;SDS011;56857;52.212;5.496;2023-03-23T03:18:16;8.73;;;3.58;;
69629;SDS011;56857;52.212;5.496;2023-03-23T03:20:49;7.53;;;3.78;;
69629;SDS011;56857;52.212;5.496;2023-03-23T03:23:18;8.05;;;3.30;;
69629;SDS011;56857;52.212;5.496;2023-03-23T03:25:47;9.15;;;3.78;;
69629;SDS011;56857;52.212;5.496;2023-03-23T03:28:16;9.48;;;4.03;;
69629;SDS011;56857;52.212;5.496;2023-03-23T03:30:43;10.15;;;3.55;;
69629;SDS011;56857;52.212;5.496;2023-03-23T03:33:12;7.00;;;3.30;;
69629;SDS011;56857;52.212;5.496;2023-03-23T03:35:38;9.57;;;3.20;;
69629;SDS011;56857;52.212;5.496;2023-03-23T03:38:07;9.18;;;3.30;;
69629;SDS011;56857;52.212;5.496;2023-03-23T03:40:34;8.50;;;3.70;;
69629;SDS011;56857;52.212;5.496;2023-03-23T03:42:59;8.43;;;2.90;;
69629;SDS011;56857;52.212;5.496;2023-03-23T03:45:25;8.00;;;2.78;;
69629;SDS011;56857;52.212;5.496;2023-03-23T03:47:50;8.57;;;2.88;;
69629;SDS011;56857;52.212;5.496;2023-03-23T03:50:16;8.03;;;2.97;;
69629;SDS011;56857;52.212;5.496;2023-03-23T03:52:41;6.90;;;2.88;;
69629;SDS011;56857;52.212;5.496;2023-03-23T03:55:08;7.05;;;2.90;;
69629;SDS011;56857;52.212;5.496;2023-03-23T03:57:34;6.78;;;2.67;;
69629;SDS011;56857;52.212;5.496;2023-03-23T03:59:59;9.75;;;2.40;;
69629;SDS011;56857;52.212;5.496;2023-03-23T04:02:25;8.40;;;3.40;;
69629;SDS011;56857;52.212;5.496;2023-03-23T04:04:50;7.60;;;2.65;;
69629;SDS011;56857;52.212;5.496;2023-03-23T04:07:15;7.18;;;2.58;;
69629;SDS011;56857;52.212;5.496;2023-03-23T04:09:42;7.85;;;3.03;;
69629;SDS011;56857;52.212;5.496;2023-03-23T04:12:08;8.27;;;3.53;;
69629;SDS011;56857;52.212;5.496;2023-03-23T04:14:34;9.18;;;2.40;;
69629;SDS011;56857;52.212;5.496;2023-03-23T04:17:00;9.10;;;2.67;;
69629;SDS011;56857;52.212;5.496;2023-03-23T04:19:25;8.05;;;2.50;;
69629;SDS011;56857;52.212;5.496;2023-03-23T04:21:51;8.35;;;2.78;;
69629;SDS011;56857;52.212;5.496;2023-03-23T04:24:16;6.40;;;2.20;;
69629;SDS011;56857;52.212;5.496;2023-03-23T04:26:42;6.90;;;2.45;;
69629;SDS011;56857;52.212;5.496;2023-03-23T04:29:08;8.82;;;2.38;;
69629;SDS011;56857;52.212;5.496;2023-03-23T04:31:35;6.72;;;2.35;;
69629;SDS011;56857;52.212;5.496;2023-03-23T04:34:01;7.78;;;2.63;;
69629;SDS011;56857;52.212;5.496;2023-03-23T04:36:26;10.95;;;2.70;;
69629;SDS011;56857;52.212;5.496;2023-03-23T04:38:52;6.90;;;2.35;;
69629;SDS011;56857;52.212;5.496;2023-03-23T04:41:17;9.30;;;2.30;;
69629;SDS011;56857;52.212;5.496;2023-03-23T04:43:43;10.40;;;2.50;;
69629;SDS011;56857;52.212;5.496;2023-03-23T04:46:08;12.20;;;2.60;;
69629;SDS011;56857;52.212;5.496;2023-03-23T04:48:34;6.13;;;2.08;;
69629;SDS011;56857;52.212;5.496;2023-03-23T04:51:03;9.63;;;2.03;;
69629;SDS011;56857;52.212;5.496;2023-03-23T04:53:29;7.97;;;2.17;;
69629;SDS011;56857;52.212;5.496;2023-03-23T04:55:55;6.57;;;2.58;;
69629;SDS011;56857;52.212;5.496;2023-03-23T04:58:21;9.75;;;2.70;;
69629;SDS011;56857;52.212;5.496;2023-03-23T05:00:46;12.60;;;2.33;;
69629;SDS011;56857;52.212;5.496;2023-03-23T05:03:11;9.25;;;2.00;;
69629;SDS011;56857;52.212;5.496;2023-03-23T05:05:37;6.63;;;2.03;;
69629;SDS011;56857;52.212;5.496;2023-03-23T05:08:03;9.57;;;2.08;;
69629;SDS011;56857;52.212;5.496;2023-03-23T05:10:28;8.50;;;2.53;;
69629;SDS011;56857;52.212;5.496;2023-03-23T05:12:54;11.75;;;2.47;;
69629;SDS011;56857;52.212;5.496;2023-03-23T05:15:19;8.70;;;3.03;;
69629;SDS011;56857;52.212;5.496;2023-03-23T05:17:44;10.20;;;2.92;;
69629;SDS011;56857;52.212;5.496;2023-03-23T05:20:11;7.13;;;1.80;;
69629;SDS011;56857;52.212;5.496;2023-03-23T05:22:38;8.93;;;2.03;;
69629;SDS011;56857;52.212;5.496;2023-03-23T05:25:07;8.02;;;2.40;;
69629;SDS011;56857;52.212;5.496;2023-03-23T05:27:33;10.43;;;1.90;;
69629;SDS011;56857;52.212;5.496;2023-03-23T05:29:58;9.37;;;2.30;;
69629;SDS011;56857;52.212;5.496;2023-03-23T05:32:24;11.38;;;2.25;;
69629;SDS011;56857;52.212;5.496;2023-03-23T05:34:50;11.52;;;2.20;;
69629;SDS011;56857;52.212;5.496;2023-03-23T05:37:15;10.27;;;2.03;;
69629;SDS011;56857;52.212;5.496;2023-03-23T05:39:41;10.53;;;2.10;;
69629;SDS011;56857;52.212;5.496;2023-03-23T05:42:06;11.75;;;2.78;;
69629;SDS011;56857;52.212;5.496;2023-03-23T05:44:31;13.00;;;2.70;;
69629;SDS011;56857;52.212;5.496;2023-03-23T05:46:56;9.10;;;2.40;;
69629;SDS011;56857;52.212;5.496;2023-03-23T05:49:22;10.68;;;2.15;;
69629;SDS011;56857;52.212;5.496;2023-03-23T05:51:47;9.07;;;1.92;;
69629;SDS011;56857;52.212;5.496;2023-03-23T05:54:13;6.88;;;2.00;;
69629;SDS011;56857;52.212;5.496;2023-03-23T05:56:40;9.57;;;2.55;;
69629;SDS011;56857;52.212;5.496;2023-03-23T05:59:05;6.88;;;2.03;;
69629;SDS011;56857;52.212;5.496;2023-03-23T06:01:31;10.25;;;2.70;;
69629;SDS011;56857;52.212;5.496;2023-03-23T06:03:57;11.18;;;2.63;;
69629;SDS011;56857;52.212;5.496;2023-03-23T06:06:22;11.40;;;2.22;;
69629;SDS011;56857;52.212;5.496;2023-03-23T06:08:48;10.00;;;2.43;;
69629;SDS011;56857;52.212;5.496;2023-03-23T06:11:13;14.60;;;2.67;;
69629;SDS011;56857;52.212;5.496;2023-03-23T06:13:39;11.90;;;2.75;;
69629;SDS011;56857;52.212;5.496;2023-03-23T06:16:04;13.43;;;2.65;;
69629;SDS011;56857;52.212;5.496;2023-03-23T06:18:30;13.63;;;2.65;;
69629;SDS011;56857;52.212;5.496;2023-03-23T06:20:55;13.27;;;3.10;;
69629;SDS011;56857;52.212;5.496;2023-03-23T06:23:20;13.00;;;2.80;;
69629;SDS011;56857;52.212;5.496;2023-03-23T06:25:46;10.35;;;2.97;;
69629;SDS011;56857;52.212;5.496;2023-03-23T06:28:11;10.52;;;2.55;;
69629;SDS011;56857;52.212;5.496;2023-03-23T06:30:37;9.30;;;2.88;;
69629;SDS011;56857;52.212;5.496;2023-03-23T06:33:02;8.98;;;2.63;;
69629;SDS011;56857;52.212;5.496;2023-03-23T06:35:28;9.88;;;2.65;;
69629;SDS011;56857;52.212;5.496;2023-03-23T06:37:53;15.10;;;2.60;;
69629;SDS011;56857;52.212;5.496;2023-03-23T06:40:18;11.35;;;2.80;;
69629;SDS011;56857;52.212;5.496;2023-03-23T06:42:44;10.00;;;2.63;;
69629;SDS011;56857;52.212;5.496;2023-03-23T06:45:10;8.50;;;2.72;;
69629;SDS011;56857;52.212;5.496;2023-03-23T06:47:35;13.98;;;2.97;;
69629;SDS011;56857;52.212;5.496;2023-03-23T06:50:01;8.63;;;2.45;;
69629;SDS011;56857;52.212;5.496;2023-03-23T06:52:27;10.85;;;2.15;;
69629;SDS011;56857;52.212;5.496;2023-03-23T06:54:52;9.30;;;2.50;;
69629;SDS011;56857;52.212;5.496;2023-03-23T06:57:18;7.78;;;2.40;;
69629;SDS011;56857;52.212;5.496;2023-03-23T06:59:43;8.60;;;2.63;;
69629;SDS011;56857;52.212;5.496;2023-03-23T07:02:12;9.95;;;3.00;;
69629;SDS011;56857;52.212;5.496;2023-03-23T07:04:39;11.23;;;2.47;;
69629;SDS011;56857;52.212;5.496;2023-03-23T07:07:05;12.50;;;2.40;;
69629;SDS011;56857;52.212;5.496;2023-03-23T07:09:32;10.82;;;2.50;;
69629;SDS011;56857;52.212;5.496;2023-03-23T07:11:58;10.65;;;2.83;;
69629;SDS011;56857;52.212;5.496;2023-03-23T07:14:23;10.00;;;2.72;;
69629;SDS011;56857;52.212;5.496;2023-03-23T07:16:49;11.10;;;3.05;;
69629;SDS011;56857;52.212;5.496;2023-03-23T07:19:14;14.18;;;2.70;;
69629;SDS011;56857;52.212;5.496;2023-03-23T07:21:40;8.30;;;2.80;;
69629;SDS011;56857;52.212;5.496;2023-03-23T07:24:06;9.60;;;2.45;;
69629;SDS011;56857;52.212;5.496;2023-03-23T07:26:35;13.25;;;3.03;;
69629;SDS011;56857;52.212;5.496;2023-03-23T07:29:00;10.45;;;2.83;;
69629;SDS011;56857;52.212;5.496;2023-03-23T07:31:25;10.35;;;2.65;;
69629;SDS011;56857;52.212;5.496;2023-03-23T07:33:52;8.75;;;3.10;;
69629;SDS011;56857;52.212;5.496;2023-03-23T07:36:17;7.55;;;2.33;;
69629;SDS011;56857;52.212;5.496;2023-03-23T07:38:44;9.15;;;3.13;;
69629;SDS011;56857;52.212;5.496;2023-03-23T07:41:13;10.68;;;3.03;;
69629;SDS011;56857;52.212;5.496;2023-03-23T07:43:38;6.90;;;2.45;;
69629;SDS011;56857;52.212;5.496;2023-03-23T07:46:04;10.70;;;2.88;;
69629;SDS011;56857;52.212;5.496;2023-03-23T07:48:29;10.25;;;3.28;;
69629;SDS011;56857;52.212;5.496;2023-03-23T07:50:56;13.32;;;3.00;;
69629;SDS011;56857;52.212;5.496;2023-03-23T07:53:33;13.25;;;3.15;;
69629;SDS011;56857;52.212;5.496;2023-03-23T07:56:05;13.65;;;2.63;;
69629;SDS011;56857;52.212;5.496;2023-03-23T07:58:31;10.27;;;2.60;;
69629;SDS011;56857;52.212;5.496;2023-03-23T08:00:56;12.30;;;2.50;;
69629;SDS011;56857;52.212;5.496;2023-03-23T08:03:22;12.75;;;2.75;;
69629;SDS011;56857;52.212;5.496;2023-03-23T08:05:48;11.45;;;2.47;;
69629;SDS011;56857;52.212;5.496;2023-03-23T08:08:13;9.50;;;2.40;;
69629;SDS011;56857;52.212;5.496;2023-03-23T08:10:38;13.80;;;2.65;;
69629;SDS011;56857;52.212;5.496;2023-03-23T08:13:04;10.07;;;2.45;;
69629;SDS011;56857;52.212;5.496;2023-03-23T08:15:29;9.02;;;2.42;;
69629;SDS011;56857;52.212;5.496;2023-03-23T08:17:54;8.77;;;2.60;;
69629;SDS011;56857;52.212;5.496;2023-03-23T08:20:20;12.13;;;3.10;;
69629;SDS011;56857;52.212;5.496;2023-03-23T08:22:51;9.50;;;2.60;;
69629;SDS011;56857;52.212;5.496;2023-03-23T08:27:44;9.73;;;2.95;;
69629;SDS011;56857;52.212;5.496;2023-03-23T08:30:14;10.75;;;2.90;;
69629;SDS011;56857;52.212;5.496;2023-03-23T08:32:42;8.82;;;2.83;;
69629;SDS011;56857;52.212;5.496;2023-03-23T08:35:09;9.57;;;2.70;;
69629;SDS011;56857;52.212;5.496;2023-03-23T08:37:37;7.70;;;2.53;;
69629;SDS011;56857;52.212;5.496;2023-03-23T08:40:05;10.82;;;2.55;;
69629;SDS011;56857;52.212;5.496;2023-03-23T08:42:31;10.45;;;3.38;;
69629;SDS011;56857;52.212;5.496;2023-03-23T08:44:56;8.10;;;2.58;;
69629;SDS011;56857;52.212;5.496;2023-03-23T08:47:21;13.10;;;2.97;;
69629;SDS011;56857;52.212;5.496;2023-03-23T08:49:47;11.20;;;2.67;;
69629;SDS011;56857;52.212;5.496;2023-03-23T08:52:12;12.23;;;2.70;;
69629;SDS011;56857;52.212;5.496;2023-03-23T08:54:37;10.25;;;2.50;;
69629;SDS011;56857;52.212;5.496;2023-03-23T08:57:03;13.05;;;2.72;;
69629;SDS011;56857;52.212;5.496;2023-03-23T08:59:30;10.80;;;2.60;;
69629;SDS011;56857;52.212;5.496;2023-03-23T09:01:56;9.85;;;2.28;;
69629;SDS011;56857;52.212;5.496;2023-03-23T09:04:22;9.40;;;2.70;;
69629;SDS011;56857;52.212;5.496;2023-03-23T09:06:47;13.90;;;3.08;;
69629;SDS011;56857;52.212;5.496;2023-03-23T09:09:14;13.18;;;2.92;;
69629;SDS011;56857;52.212;5.496;2023-03-23T09:11:39;11.15;;;2.85;;
69629;SDS011;56857;52.212;5.496;2023-03-23T09:14:05;8.60;;;2.47;;
69629;SDS011;56857;52.212;5.496;2023-03-23T09:16:31;11.73;;;2.78;;
69629;SDS011;56857;52.212;5.496;2023-03-23T09:18:57;9.82;;;2.63;;
69629;SDS011;56857;52.212;5.496;2023-03-23T09:21:23;9.05;;;2.40;;
69629;SDS011;56857;52.212;5.496;2023-03-23T09:23:51;10.00;;;2.53;;
69629;SDS011;56857;52.212;5.496;2023-03-23T09:26:17;12.88;;;3.08;;
69629;SDS011;56857;52.212;5.496;2023-03-23T09:28:43;13.40;;;2.75;;
69629;SDS011;56857;52.212;5.496;2023-03-23T09:31:09;9.73;;;2.97;;
69629;SDS011;56857;52.212;5.496;2023-03-23T09:33:35;10.23;;;2.78;;
69629;SDS011;56857;52.212;5.496;2023-03-23T09:36:02;10.15;;;2.80;;
69629;SDS011;56857;52.212;5.496;2023-03-23T09:38:28;11.88;;;2.40;;
69629;SDS011;56857;52.212;5.496;2023-03-23T09:40:58;16.35;;;2.60;;
69629;SDS011;56857;52.212;5.496;2023-03-23T09:46:37;8.23;;;2.67;;
69629;SDS011;56857;52.212;5.496;2023-03-23T09:56:58;13.18;;;2.65;;
69629;SDS011;56857;52.212;5.496;2023-03-23T09:59:30;12.07;;;2.47;;
69629;SDS011;56857;52.212;5.496;2023-03-23T10:02:09;12.02;;;2.33;;
69629;SDS011;56857;52.212;5.496;2023-03-23T10:04:44;15.77;;;3.28;;
69629;SDS011;56857;52.212;5.496;2023-03-23T10:07:15;16.67;;;2.75;;
69629;SDS011;56857;52.212;5.496;2023-03-23T10:09:46;11.32;;;2.45;;
69629;SDS011;56857;52.212;5.496;2023-03-23T10:12:22;16.48;;;2.60;;
69629;SDS011;56857;52.212;5.496;2023-03-23T10:22:40;13.05;;;2.92;;
69629;SDS011;56857;52.212;5.496;2023-03-23T10:30:42;16.15;;;2.53;;
69629;SDS011;56857;52.212;5.496;2023-03-23T10:38:44;10.32;;;2.38;;
69629;SDS011;56857;52.212;5.496;2023-03-23T10:41:15;15.82;;;3.15;;
69629;SDS011;56857;52.212;5.496;2023-03-23T10:43:44;9.70;;;2.00;;
69629;SDS011;56857;52.212;5.496;2023-03-23T10:46:25;12.00;;;2.42;;
69629;SDS011;56857;52.212;5.496;2023-03-23T10:48:57;13.82;;;2.38;;
69629;SDS011;56857;52.212;5.496;2023-03-23T10:51:32;10.27;;;2.10;;
69629;SDS011;56857;52.212;5.496;2023-03-23T10:54:01;11.20;;;2.20;;
69629;SDS011;56857;52.212;5.496;2023-03-23T10:56:34;11.93;;;2.40;;
69629;SDS011;56857;52.212;5.496;2023-03-23T10:59:21;10.88;;;2.45;;
69629;SDS011;56857;52.212;5.496;2023-03-23T11:01:53;13.30;;;2.75;;
69629;SDS011;56857;52.212;5.496;2023-03-23T11:04:20;14.55;;;2.80;;
69629;SDS011;56857;52.212;5.496;2023-03-23T11:06:49;13.20;;;2.55;;
69629;SDS011;56857;52.212;5.496;2023-03-23T11:09:17;12.80;;;2.75;;
69629;SDS011;56857;52.212;5.496;2023-03-23T11:11:57;13.40;;;2.38;;
69629;SDS011;56857;52.212;5.496;2023-03-23T11:16:57;9.05;;;2.10;;
69629;SDS011;56857;52.212;5.496;2023-03-23T11:19:26;13.50;;;2.83;;
69629;SDS011;56857;52.212;5.496;2023-03-23T11:21:52;11.63;;;2.55;;
69629;SDS011;56857;52.212;5.496;2023-03-23T11:24:23;11.18;;;2.53;;
69629;SDS011;56857;52.212;5.496;2023-03-23T11:26:51;14.48;;;2.60;;
69629;SDS011;56857;52.212;5.496;2023-03-23T11:29:18;16.63;;;2.70;;
69629;SDS011;56857;52.212;5.496;2023-03-23T11:31:46;9.63;;;2.10;;
69629;SDS011;56857;52.212;5.496;2023-03-23T11:34:21;12.15;;;2.53;;
69629;SDS011;56857;52.212;5.496;2023-03-23T11:36:57;10.48;;;2.22;;
69629;SDS011;56857;52.212;5.496;2023-03-23T11:41:54;19.08;;;3.60;;
69629;SDS011;56857;52.212;5.496;2023-03-23T11:44:23;12.15;;;2.38;;
69629;SDS011;56857;52.212;5.496;2023-03-23T11:46:55;11.73;;;2.60;;
69629;SDS011;56857;52.212;5.496;2023-03-23T11:49:31;12.63;;;2.70;;
69629;SDS011;56857;52.212;5.496;2023-03-23T11:52:13;13.32;;;2.58;;
69629;SDS011;56857;52.212;5.496;2023-03-23T11:54:47;9.65;;;2.50;;
69629;SDS011;56857;52.212;5.496;2023-03-23T11:57:19;12.63;;;2.40;;
69629;SDS011;56857;52.212;5.496;2023-03-23T11:59:44;11.63;;;2.08;;
69629;SDS011;56857;52.212;5.496;2023-03-23T12:02:24;10.57;;;2.33;;
69629;SDS011;56857;52.212;5.496;2023-03-23T12:26:31;12.02;;;2.25;;
69629;SDS011;56857;52.212;5.496;2023-03-23T12:29:04;10.45;;;2.25;;
69629;SDS011;56857;52.212;5.496;2023-03-23T12:31:52;13.15;;;2.40;;
69629;SDS011;56857;52.212;5.496;2023-03-23T12:54:47;11.43;;;2.15;;
69629;SDS011;56857;52.212;5.496;2023-03-23T12:57:56;12.68;;;2.50;;
69629;SDS011;56857;52.212;5.496;2023-03-23T13:00:26;10.73;;;2.03;;
69629;SDS011;56857;52.212;5.496;2023-03-23T13:08:16;11.68;;;2.40;;
69629;SDS011;56857;52.212;5.496;2023-03-23T13:10:49;13.70;;;2.25;;
69629;SDS011;56857;52.212;5.496;2023-03-23T13:13:19;9.13;;;2.03;;
69629;SDS011;56857;52.212;5.496;2023-03-23T13:21:32;10.05;;;1.95;;
69629;SDS011;56857;52.212;5.496;2023-03-23T13:24:04;7.70;;;2.35;;
69629;SDS011;56857;52.212;5.496;2023-03-23T13:26:36;8.07;;;2.20;;
69629;SDS011;56857;52.212;5.496;2023-03-23T13:29:11;11.63;;;2.40;;
69629;SDS011;56857;52.212;5.496;2023-03-23T13:31:39;9.50;;;2.35;;
69629;SDS011;56857;52.212;5.496;2023-03-23T13:34:16;9.15;;;2.17;;
69629;SDS011;56857;52.212;5.496;2023-03-23T13:36:58;9.77;;;2.63;;
69629;SDS011;56857;52.212;5.496;2023-03-23T13:39:47;11.02;;;2.22;;
69629;SDS011;56857;52.212;5.496;2023-03-23T13:42:22;8.45;;;1.98;;
69629;SDS011;56857;52.212;5.496;2023-03-23T13:50:01;11.57;;;2.22;;
69629;SDS011;56857;52.212;5.496;2023-03-23T14:03:39;8.63;;;1.85;;
69629;SDS011;56857;52.212;5.496;2023-03-23T14:06:02;11.90;;;1.88;;
69629;SDS011;56857;52.212;5.496;2023-03-23T14:11:01;8.90;;;2.33;;
69629;SDS011;56857;52.212;5.496;2023-03-23T14:16:16;9.90;;;2.10;;
69629;SDS011;56857;52.212;5.496;2023-03-23T14:18:56;11.25;;;1.80;;
69629;SDS011;56857;52.212;5.496;2023-03-23T14:21:36;11.50;;;2.25;;
69629;SDS011;56857;52.212;5.496;2023-03-23T14:24:11;9.48;;;2.40;;
69629;SDS011;56857;52.212;5.496;2023-03-23T14:26:40;7.80;;;1.90;;
69629;SDS011;56857;52.212;5.496;2023-03-23T14:29:06;12.55;;;2.63;;
69629;SDS011;56857;52.212;5.496;2023-03-23T14:31:35;10.20;;;2.28;;
69629;SDS011;56857;52.212;5.496;2023-03-23T14:34:02;8.40;;;1.70;;
69629;SDS011;56857;52.212;5.496;2023-03-23T14:36:30;10.82;;;2.60;;
69629;SDS011;56857;52.212;5.496;2023-03-23T14:39:04;8.45;;;2.10;;
69629;SDS011;56857;52.212;5.496;2023-03-23T14:41:31;12.07;;;2.75;;
69629;SDS011;56857;52.212;5.496;2023-03-23T14:43:57;9.25;;;2.03;;
69629;SDS011;56857;52.212;5.496;2023-03-23T14:46:27;9.15;;;2.63;;
69629;SDS011;56857;52.212;5.496;2023-03-23T14:48:54;9.75;;;2.50;;
69629;SDS011;56857;52.212;5.496;2023-03-23T14:51:20;10.50;;;3.25;;
69629;SDS011;56857;52.212;5.496;2023-03-23T14:53:46;11.13;;;2.47;;
69629;SDS011;56857;52.212;5.496;2023-03-23T14:56:13;13.75;;;2.78;;
69629;SDS011;56857;52.212;5.496;2023-03-23T14:58:46;11.50;;;2.55;;
69629;SDS011;56857;52.212;5.496;2023-03-23T15:01:15;11.82;;;2.80;;
69629;SDS011;56857;52.212;5.496;2023-03-23T15:06:41;10.40;;;2.85;;
69629;SDS011;56857;52.212;5.496;2023-03-23T15:09:13;9.40;;;2.63;;
69629;SDS011;56857;52.212;5.496;2023-03-23T15:11:50;13.02;;;2.60;;
69629;SDS011;56857;52.212;5.496;2023-03-23T15:14:20;16.08;;;4.78;;
69629;SDS011;56857;52.212;5.496;2023-03-23T15:16:47;9.63;;;3.13;;
69629;SDS011;56857;52.212;5.496;2023-03-23T15:19:19;15.73;;;3.20;;
69629;SDS011;56857;52.212;5.496;2023-03-23T15:24:49;12.55;;;2.60;;
69629;SDS011;56857;52.212;5.496;2023-03-23T15:27:16;13.05;;;2.92;;
69629;SDS011;56857;52.212;5.496;2023-03-23T15:29:58;11.73;;;2.38;;
69629;SDS011;56857;52.212;5.496;2023-03-23T15:32:28;10.80;;;2.22;;
69629;SDS011;56857;52.212;5.496;2023-03-23T15:34:56;14.05;;;2.60;;
69629;SDS011;56857;52.212;5.496;2023-03-23T15:37:32;9.38;;;2.38;;
69629;SDS011;56857;52.212;5.496;2023-03-23T15:39:59;18.95;;;3.13;;
69629;SDS011;56857;52.212;5.496;2023-03-23T15:44:58;10.03;;;2.60;;
69629;SDS011;56857;52.212;5.496;2023-03-23T15:47:36;12.70;;;2.60;;
69629;SDS011;56857;52.212;5.496;2023-03-23T15:50:14;10.02;;;2.83;;
69629;SDS011;56857;52.212;5.496;2023-03-23T15:52:45;17.50;;;2.85;;
69629;SDS011;56857;52.212;5.496;2023-03-23T15:55:36;13.35;;;2.30;;
69629;SDS011;56857;52.212;5.496;2023-03-23T15:58:10;11.32;;;2.25;;
69629;SDS011;56857;52.212;5.496;2023-03-23T16:00:37;15.27;;;2.30;;
69629;SDS011;56857;52.212;5.496;2023-03-23T16:03:05;10.02;;;2.22;;
69629;SDS011;56857;52.212;5.496;2023-03-23T16:05:35;13.40;;;2.38;;
69629;SDS011;56857;52.212;5.496;2023-03-23T16:08:00;10.10;;;2.70;;
69629;SDS011;56857;52.212;5.496;2023-03-23T16:10:26;10.60;;;2.90;;
69629;SDS011;56857;52.212;5.496;2023-03-23T16:12:53;10.35;;;2.00;;
69629;SDS011;56857;52.212;5.496;2023-03-23T16:15:18;11.57;;;2.80;;
69629;SDS011;56857;52.212;5.496;2023-03-23T16:17:43;12.68;;;2.45;;
69629;SDS011;56857;52.212;5.496;2023-03-23T16:20:18;11.55;;;3.05;;
69629;SDS011;56857;52.212;5.496;2023-03-23T16:22:46;12.70;;;3.63;;
69629;SDS011;56857;52.212;5.496;2023-03-23T16:25:12;7.85;;;2.60;;
69629;SDS011;56857;52.212;5.496;2023-03-23T16:27:38;11.68;;;2.40;;
69629;SDS011;56857;52.212;5.496;2023-03-23T16:30:12;10.60;;;2.55;;
69629;SDS011;56857;52.212;5.496;2023-03-23T16:32:39;12.57;;;2.95;;
69629;SDS011;56857;52.212;5.496;2023-03-23T16:35:05;14.45;;;4.22;;
69629;SDS011;56857;52.212;5.496;2023-03-23T16:37:31;12.15;;;2.25;;
69629;SDS011;56857;52.212;5.496;2023-03-23T16:39:56;12.57;;;2.78;;
69629;SDS011;56857;52.212;5.496;2023-03-23T16:42:21;15.77;;;3.25;;
69629;SDS011;56857;52.212;5.496;2023-03-23T16:44:47;10.90;;;2.20;;
69629;SDS011;56857;52.212;5.496;2023-03-23T16:47:12;15.57;;;3.33;;
69629;SDS011;56857;52.212;5.496;2023-03-23T16:49:37;14.68;;;2.92;;
69629;SDS011;56857;52.212;5.496;2023-03-23T16:52:03;13.52;;;3.15;;
69629;SDS011;56857;52.212;5.496;2023-03-23T16:54:28;11.38;;;2.53;;
69629;SDS011;56857;52.212;5.496;2023-03-23T16:56:53;13.00;;;2.50;;
69629;SDS011;56857;52.212;5.496;2023-03-23T16:59:19;8.45;;;2.50;;
69629;SDS011;56857;52.212;5.496;2023-03-23T17:01:45;12.77;;;2.70;;